sensor_id;sensor_type;location;lat;lon;timestamp;temperature;humidity
13264;DHT22;6700;51.988;7.646;2023-06-22T00:22:23;19.50;99.90
13264;DHT22;6700;51.988;7.646;2023-06-22T00:24:55;19.20;99.90
13264;DHT22;6700;51.988;7.646;2023-06-22T00:27:22;19.20;99.90
13264;DHT22;6700;51.988;7.646;2023-06-22T00:29:49;19.10;99.90
13264;DHT22;6700;51.988;7.646;2023-06-22T00:32:15;19.20;99.90
13264;DHT22;6700;51.988;7.646;2023-06-22T00:34:43;19.10;99.90
13264;DHT22;6700;51.988;7.646;2023-06-22T00:37:10;19.20;99.90
13264;DHT22;6700;51.988;7.646;2023-06-22T00:39:37;19.10;99.90
13264;DHT22;6700;51.988;7.646;2023-06-22T00:42:04;19.10;99.90
13264;DHT22;6700;51.988;7.646;2023-06-22T00:44:31;19.10;99.90
13264;DHT22;6700;51.988;7.646;2023-06-22T00:46:58;19.10;99.90
13264;DHT22;6700;51.988;7.646;2023-06-22T00:49:26;19.00;99.90
13264;DHT22;6700;51.988;7.646;2023-06-22T00:51:53;19.10;99.90
13264;DHT22;6700;51.988;7.646;2023-06-22T00:54:20;19.00;99.90
13264;DHT22;6700;51.988;7.646;2023-06-22T00:56:54;19.10;99.90
13264;DHT22;6700;51.988;7.646;2023-06-22T00:59:23;19.00;99.90
13264;DHT22;6700;51.988;7.646;2023-06-22T01:01:50;18.90;99.90
13264;DHT22;6700;51.988;7.646;2023-06-22T01:04:17;18.90;99.90
13264;DHT22;6700;51.988;7.646;2023-06-22T01:10:07;18.80;99.90
13264;DHT22;6700;51.988;7.646;2023-06-22T01:12:44;18.80;99.90
13264;DHT22;6700;51.988;7.646;2023-06-22T01:15:18;18.90;99.90
13264;DHT22;6700;51.988;7.646;2023-06-22T01:17:48;18.80;99.90
13264;DHT22;6700;51.988;7.646;2023-06-22T01:20:16;18.90;99.90
13264;DHT22;6700;51.988;7.646;2023-06-22T01:22:57;18.60;99.90
13264;DHT22;6700;51.988;7.646;2023-06-22T01:25:36;18.70;99.90
13264;DHT22;6700;51.988;7.646;2023-06-22T01:28:23;18.50;99.90
13264;DHT22;6700;51.988;7.646;2023-06-22T01:30:51;18.40;99.90
13264;DHT22;6700;51.988;7.646;2023-06-22T01:33:33;18.40;99.90
13264;DHT22;6700;51.988;7.646;2023-06-22T01:36:02;18.40;99.90
13264;DHT22;6700;51.988;7.646;2023-06-22T01:38:29;18.60;99.90
13264;DHT22;6700;51.988;7.646;2023-06-22T01:40:57;18.40;99.90
13264;DHT22;6700;51.988;7.646;2023-06-22T01:43:26;18.40;99.90
13264;DHT22;6700;51.988;7.646;2023-06-22T01:45:57;18.40;99.90
13264;DHT22;6700;51.988;7.646;2023-06-22T01:48:25;18.40;99.90
13264;DHT22;6700;51.988;7.646;2023-06-22T01:50:53;18.40;99.90
13264;DHT22;6700;51.988;7.646;2023-06-22T01:53:23;18.40;99.90
13264;DHT22;6700;51.988;7.646;2023-06-22T01:55:50;18.50;99.90
13264;DHT22;6700;51.988;7.646;2023-06-22T01:58:20;18.30;99.90
13264;DHT22;6700;51.988;7.646;2023-06-22T02:00:55;18.40;99.90
13264;DHT22;6700;51.988;7.646;2023-06-22T02:03:37;18.60;99.90
13264;DHT22;6700;51.988;7.646;2023-06-22T02:06:08;18.40;99.90
13264;DHT22;6700;51.988;7.646;2023-06-22T02:08:41;18.50;99.90
13264;DHT22;6700;51.988;7.646;2023-06-22T02:11:11;18.30;99.90
13264;DHT22;6700;51.988;7.646;2023-06-22T02:13:39;18.30;99.90
13264;DHT22;6700;51.988;7.646;2023-06-22T02:16:11;18.30;99.90
13264;DHT22;6700;51.988;7.646;2023-06-22T02:18:38;18.40;99.90
13264;DHT22;6700;51.988;7.646;2023-06-22T02:21:06;18.20;99.90
13264;DHT22;6700;51.988;7.646;2023-06-22T02:23:33;18.30;99.90
13264;DHT22;6700;51.988;7.646;2023-06-22T02:26:03;18.40;99.90
13264;DHT22;6700;51.988;7.646;2023-06-22T02:28:30;18.30;99.90
13264;DHT22;6700;51.988;7.646;2023-06-22T02:30:56;18.40;99.90
13264;DHT22;6700;51.988;7.646;2023-06-22T02:33:23;18.30;99.90
13264;DHT22;6700;51.988;7.646;2023-06-22T02:35:50;18.20;99.90
13264;DHT22;6700;51.988;7.646;2023-06-22T02:38:16;18.40;99.90
13264;DHT22;6700;51.988;7.646;2023-06-22T02:40:44;18.20;99.90
13264;DHT22;6700;51.988;7.646;2023-06-22T02:43:11;18.20;99.90
13264;DHT22;6700;51.988;7.646;2023-06-22T02:45:37;18.20;99.90
13264;DHT22;6700;51.988;7.646;2023-06-22T02:48:04;18.20;99.90
13264;DHT22;6700;51.988;7.646;2023-06-22T02:50:31;18.10;99.90
13264;DHT22;6700;51.988;7.646;2023-06-22T02:52:58;18.20;99.90
13264;DHT22;6700;51.988;7.646;2023-06-22T02:55:25;18.10;99.90
13264;DHT22;6700;51.988;7.646;2023-06-22T02:57:52;18.10;99.90
13264;DHT22;6700;51.988;7.646;2023-06-22T03:00:19;18.20;99.90
13264;DHT22;6700;51.988;7.646;2023-06-22T03:02:49;18.10;99.90
13264;DHT22;6700;51.988;7.646;2023-06-22T03:05:16;18.10;99.90
13264;DHT22;6700;51.988;7.646;2023-06-22T03:07:45;18.20;99.90
13264;DHT22;6700;51.988;7.646;2023-06-22T03:10:13;18.20;99.90
13264;DHT22;6700;51.988;7.646;2023-06-22T03:12:40;18.30;99.90
13264;DHT22;6700;51.988;7.646;2023-06-22T03:15:09;18.20;99.90
13264;DHT22;6700;51.988;7.646;2023-06-22T03:17:37;18.20;99.90
13264;DHT22;6700;51.988;7.646;2023-06-22T03:20:08;18.30;99.90
13264;DHT22;6700;51.988;7.646;2023-06-22T03:22:38;18.20;99.90
13264;DHT22;6700;51.988;7.646;2023-06-22T03:25:05;18.10;99.90
13264;DHT22;6700;51.988;7.646;2023-06-22T03:27:37;18.20;99.90
13264;DHT22;6700;51.988;7.646;2023-06-22T03:30:04;18.10;99.90
13264;DHT22;6700;51.988;7.646;2023-06-22T03:32:31;18.00;99.90
13264;DHT22;6700;51.988;7.646;2023-06-22T03:34:58;18.10;99.90
13264;DHT22;6700;51.988;7.646;2023-06-22T03:37:29;18.10;99.90
13264;DHT22;6700;51.988;7.646;2023-06-22T03:39:55;18.00;99.90
13264;DHT22;6700;51.988;7.646;2023-06-22T03:42:22;18.10;99.90
13264;DHT22;6700;51.988;7.646;2023-06-22T03:44:49;18.10;99.90
13264;DHT22;6700;51.988;7.646;2023-06-22T03:47:16;18.10;99.90
13264;DHT22;6700;51.988;7.646;2023-06-22T03:49:42;18.00;99.90
13264;DHT22;6700;51.988;7.646;2023-06-22T03:52:09;17.90;99.90
13264;DHT22;6700;51.988;7.646;2023-06-22T03:54:37;18.00;99.90
13264;DHT22;6700;51.988;7.646;2023-06-22T03:57:04;18.10;99.90
13264;DHT22;6700;51.988;7.646;2023-06-22T03:59:31;18.00;99.90
13264;DHT22;6700;51.988;7.646;2023-06-22T04:01:59;18.10;99.90
13264;DHT22;6700;51.988;7.646;2023-06-22T04:04:26;18.00;99.90
13264;DHT22;6700;51.988;7.646;2023-06-22T04:06:52;18.10;99.90
13264;DHT22;6700;51.988;7.646;2023-06-22T04:09:19;18.10;99.90
13264;DHT22;6700;51.988;7.646;2023-06-22T04:11:48;18.10;99.90
13264;DHT22;6700;51.988;7.646;2023-06-22T04:14:14;18.10;99.90
13264;DHT22;6700;51.988;7.646;2023-06-22T04:16:41;18.10;99.90
13264;DHT22;6700;51.988;7.646;2023-06-22T04:19:08;18.20;99.90
13264;DHT22;6700;51.988;7.646;2023-06-22T04:21:40;18.20;99.90
13264;DHT22;6700;51.988;7.646;2023-06-22T04:24:07;18.20;99.90
13264;DHT22;6700;51.988;7.646;2023-06-22T04:26:34;18.30;99.90
13264;DHT22;6700;51.988;7.646;2023-06-22T04:29:04;18.40;99.90
13264;DHT22;6700;51.988;7.646;2023-06-22T04:31:32;18.30;99.90
13264;DHT22;6700;51.988;7.646;2023-06-22T04:34:07;18.30;99.90
13264;DHT22;6700;51.988;7.646;2023-06-22T04:36:38;18.40;99.90
13264;DHT22;6700;51.988;7.646;2023-06-22T04:39:07;18.40;99.90
13264;DHT22;6700;51.988;7.646;2023-06-22T04:41:33;18.60;99.90
13264;DHT22;6700;51.988;7.646;2023-06-22T04:44:15;18.60;99.90
13264;DHT22;6700;51.988;7.646;2023-06-22T04:46:52;18.60;99.90
13264;DHT22;6700;51.988;7.646;2023-06-22T04:49:21;18.60;99.90
13264;DHT22;6700;51.988;7.646;2023-06-22T04:51:48;18.70;99.90
13264;DHT22;6700;51.988;7.646;2023-06-22T04:54:18;18.80;99.90
13264;DHT22;6700;51.988;7.646;2023-06-22T04:56:44;18.90;99.90
13264;DHT22;6700;51.988;7.646;2023-06-22T04:59:13;18.90;99.90
13264;DHT22;6700;51.988;7.646;2023-06-22T05:01:40;18.90;99.90
13264;DHT22;6700;51.988;7.646;2023-06-22T05:04:06;18.90;99.90
13264;DHT22;6700;51.988;7.646;2023-06-22T05:06:34;18.90;99.90
13264;DHT22;6700;51.988;7.646;2023-06-22T05:09:01;19.10;99.90
13264;DHT22;6700;51.988;7.646;2023-06-22T05:11:28;19.00;99.90
13264;DHT22;6700;51.988;7.646;2023-06-22T05:13:55;19.20;99.90
13264;DHT22;6700;51.988;7.646;2023-06-22T05:16:22;19.30;99.90
13264;DHT22;6700;51.988;7.646;2023-06-22T05:18:53;19.20;99.90
13264;DHT22;6700;51.988;7.646;2023-06-22T05:21:25;19.50;99.90
13264;DHT22;6700;51.988;7.646;2023-06-22T05:23:53;19.50;99.90
13264;DHT22;6700;51.988;7.646;2023-06-22T05:26:20;19.60;99.90
13264;DHT22;6700;51.988;7.646;2023-06-22T05:28:48;19.50;99.90
13264;DHT22;6700;51.988;7.646;2023-06-22T05:31:15;19.60;99.90
13264;DHT22;6700;51.988;7.646;2023-06-22T05:33:43;19.60;99.90
13264;DHT22;6700;51.988;7.646;2023-06-22T05:36:10;19.90;99.90
13264;DHT22;6700;51.988;7.646;2023-06-22T05:38:37;20.00;99.90
13264;DHT22;6700;51.988;7.646;2023-06-22T05:41:04;20.00;99.90
13264;DHT22;6700;51.988;7.646;2023-06-22T05:43:31;20.10;99.90
13264;DHT22;6700;51.988;7.646;2023-06-22T05:45:59;20.10;99.90
13264;DHT22;6700;51.988;7.646;2023-06-22T05:48:27;20.20;99.90
13264;DHT22;6700;51.988;7.646;2023-06-22T05:50:53;20.10;99.90
13264;DHT22;6700;51.988;7.646;2023-06-22T05:53:20;20.20;99.90
13264;DHT22;6700;51.988;7.646;2023-06-22T05:55:47;20.30;99.90
13264;DHT22;6700;51.988;7.646;2023-06-22T05:58:14;20.30;99.90
13264;DHT22;6700;51.988;7.646;2023-06-22T06:00:42;20.50;99.90
13264;DHT22;6700;51.988;7.646;2023-06-22T06:03:10;20.50;99.90
13264;DHT22;6700;51.988;7.646;2023-06-22T06:05:40;20.60;99.90
13264;DHT22;6700;51.988;7.646;2023-06-22T06:08:07;20.70;99.90
13264;DHT22;6700;51.988;7.646;2023-06-22T06:10:35;20.90;99.90
13264;DHT22;6700;51.988;7.646;2023-06-22T06:13:02;21.10;99.90
13264;DHT22;6700;51.988;7.646;2023-06-22T06:15:31;21.10;99.90
13264;DHT22;6700;51.988;7.646;2023-06-22T06:17:58;21.10;99.90
13264;DHT22;6700;51.988;7.646;2023-06-22T06:20:26;21.30;99.90
13264;DHT22;6700;51.988;7.646;2023-06-22T06:22:55;21.30;99.90
13264;DHT22;6700;51.988;7.646;2023-06-22T06:25:23;21.30;99.90
13264;DHT22;6700;51.988;7.646;2023-06-22T06:27:51;21.30;99.90
13264;DHT22;6700;51.988;7.646;2023-06-22T06:30:18;21.40;99.90
13264;DHT22;6700;51.988;7.646;2023-06-22T06:32:46;21.50;99.90
13264;DHT22;6700;51.988;7.646;2023-06-22T06:35:14;21.40;99.90
13264;DHT22;6700;51.988;7.646;2023-06-22T06:37:44;21.40;99.90
13264;DHT22;6700;51.988;7.646;2023-06-22T06:40:14;21.40;99.90
13264;DHT22;6700;51.988;7.646;2023-06-22T06:42:43;21.40;99.90
13264;DHT22;6700;51.988;7.646;2023-06-22T06:45:12;21.50;99.90
13264;DHT22;6700;51.988;7.646;2023-06-22T06:47:39;21.30;99.90
13264;DHT22;6700;51.988;7.646;2023-06-22T06:50:07;21.40;99.90
13264;DHT22;6700;51.988;7.646;2023-06-22T06:52:34;21.60;99.90
13264;DHT22;6700;51.988;7.646;2023-06-22T06:55:05;21.50;99.90
13264;DHT22;6700;51.988;7.646;2023-06-22T06:57:35;21.50;99.90
13264;DHT22;6700;51.988;7.646;2023-06-22T07:00:06;21.50;99.90
13264;DHT22;6700;51.988;7.646;2023-06-22T07:02:37;21.70;99.90
13264;DHT22;6700;51.988;7.646;2023-06-22T07:05:04;21.80;99.90
13264;DHT22;6700;51.988;7.646;2023-06-22T07:07:32;21.70;99.90
13264;DHT22;6700;51.988;7.646;2023-06-22T07:10:04;21.90;99.90
13264;DHT22;6700;51.988;7.646;2023-06-22T07:12:32;21.80;99.90
13264;DHT22;6700;51.988;7.646;2023-06-22T07:15:04;22.00;99.90
13264;DHT22;6700;51.988;7.646;2023-06-22T07:17:31;22.00;99.90
13264;DHT22;6700;51.988;7.646;2023-06-22T07:19:58;21.90;99.90
13264;DHT22;6700;51.988;7.646;2023-06-22T07:22:25;22.10;99.90
13264;DHT22;6700;51.988;7.646;2023-06-22T07:24:52;22.00;99.90
13264;DHT22;6700;51.988;7.646;2023-06-22T07:27:19;21.90;99.90
13264;DHT22;6700;51.988;7.646;2023-06-22T07:29:46;21.90;99.90
13264;DHT22;6700;51.988;7.646;2023-06-22T07:32:13;21.90;99.90
13264;DHT22;6700;51.988;7.646;2023-06-22T07:34:40;21.90;99.90
13264;DHT22;6700;51.988;7.646;2023-06-22T07:37:08;22.00;99.90
13264;DHT22;6700;51.988;7.646;2023-06-22T07:39:35;21.90;99.90
13264;DHT22;6700;51.988;7.646;2023-06-22T07:42:01;21.90;99.90
13264;DHT22;6700;51.988;7.646;2023-06-22T07:44:28;22.00;99.90
13264;DHT22;6700;51.988;7.646;2023-06-22T07:46:55;22.10;99.90
13264;DHT22;6700;51.988;7.646;2023-06-22T07:49:22;21.90;99.90
13264;DHT22;6700;51.988;7.646;2023-06-22T07:51:48;22.00;99.90
13264;DHT22;6700;51.988;7.646;2023-06-22T07:54:15;22.10;99.90
13264;DHT22;6700;51.988;7.646;2023-06-22T07:56:43;22.10;99.90
13264;DHT22;6700;51.988;7.646;2023-06-22T07:59:10;22.10;99.90
13264;DHT22;6700;51.988;7.646;2023-06-22T08:01:37;21.90;99.90
13264;DHT22;6700;51.988;7.646;2023-06-22T08:04:03;22.00;99.90
13264;DHT22;6700;51.988;7.646;2023-06-22T08:06:32;22.20;99.90
13264;DHT22;6700;51.988;7.646;2023-06-22T08:08:59;22.00;99.90
13264;DHT22;6700;51.988;7.646;2023-06-22T08:11:26;22.00;99.90
13264;DHT22;6700;51.988;7.646;2023-06-22T08:13:53;22.00;99.90
13264;DHT22;6700;51.988;7.646;2023-06-22T08:16:21;22.10;99.90
13264;DHT22;6700;51.988;7.646;2023-06-22T08:18:48;22.10;99.90
13264;DHT22;6700;51.988;7.646;2023-06-22T08:21:15;22.30;99.90
13264;DHT22;6700;51.988;7.646;2023-06-22T08:23:42;22.20;99.90
13264;DHT22;6700;51.988;7.646;2023-06-22T08:26:09;22.30;99.90
13264;DHT22;6700;51.988;7.646;2023-06-22T08:28:35;22.20;99.90
13264;DHT22;6700;51.988;7.646;2023-06-22T08:31:03;22.20;99.90
13264;DHT22;6700;51.988;7.646;2023-06-22T08:33:30;22.20;99.90
13264;DHT22;6700;51.988;7.646;2023-06-22T08:35:58;22.40;99.90
13264;DHT22;6700;51.988;7.646;2023-06-22T08:38:25;22.30;99.90
13264;DHT22;6700;51.988;7.646;2023-06-22T08:40:52;22.50;99.90
13264;DHT22;6700;51.988;7.646;2023-06-22T08:43:19;22.40;99.90
13264;DHT22;6700;51.988;7.646;2023-06-22T08:45:46;22.80;99.90
13264;DHT22;6700;51.988;7.646;2023-06-22T08:48:12;22.70;99.90
13264;DHT22;6700;51.988;7.646;2023-06-22T08:50:39;22.80;99.90
13264;DHT22;6700;51.988;7.646;2023-06-22T08:53:09;22.80;99.90
13264;DHT22;6700;51.988;7.646;2023-06-22T08:55:36;22.90;99.90
13264;DHT22;6700;51.988;7.646;2023-06-22T08:58:03;23.00;99.90
13264;DHT22;6700;51.988;7.646;2023-06-22T09:00:31;23.10;99.90
13264;DHT22;6700;51.988;7.646;2023-06-22T09:03:01;23.30;99.90
13264;DHT22;6700;51.988;7.646;2023-06-22T09:05:28;23.40;99.90
13264;DHT22;6700;51.988;7.646;2023-06-22T09:07:58;23.60;99.90
13264;DHT22;6700;51.988;7.646;2023-06-22T09:10:25;23.50;99.90
13264;DHT22;6700;51.988;7.646;2023-06-22T09:12:53;23.60;99.90
13264;DHT22;6700;51.988;7.646;2023-06-22T09:15:19;23.40;99.90
13264;DHT22;6700;51.988;7.646;2023-06-22T09:17:46;23.60;99.90
13264;DHT22;6700;51.988;7.646;2023-06-22T09:20:13;23.60;99.90
13264;DHT22;6700;51.988;7.646;2023-06-22T09:22:41;23.90;99.90
13264;DHT22;6700;51.988;7.646;2023-06-22T09:25:08;23.90;99.90
13264;DHT22;6700;51.988;7.646;2023-06-22T09:27:35;23.80;99.90
13264;DHT22;6700;51.988;7.646;2023-06-22T09:30:01;23.90;99.90
13264;DHT22;6700;51.988;7.646;2023-06-22T09:32:30;23.90;99.90
13264;DHT22;6700;51.988;7.646;2023-06-22T09:34:57;23.90;99.90
13264;DHT22;6700;51.988;7.646;2023-06-22T09:37:23;23.90;99.90
13264;DHT22;6700;51.988;7.646;2023-06-22T09:39:50;23.90;99.90
13264;DHT22;6700;51.988;7.646;2023-06-22T09:44:44;25.00;99.90
13264;DHT22;6700;51.988;7.646;2023-06-22T09:54:41;26.20;99.90
13264;DHT22;6700;51.988;7.646;2023-06-22T10:04:29;25.80;99.90
13264;DHT22;6700;51.988;7.646;2023-06-22T10:06:57;25.90;99.90
13264;DHT22;6700;51.988;7.646;2023-06-22T10:09:23;25.70;99.90
13264;DHT22;6700;51.988;7.646;2023-06-22T10:11:50;25.60;99.90
13264;DHT22;6700;51.988;7.646;2023-06-22T10:24:06;25.30;99.90
13264;DHT22;6700;51.988;7.646;2023-06-22T10:26:33;25.50;99.90
13264;DHT22;6700;51.988;7.646;2023-06-22T10:39:04;25.40;99.90
13264;DHT22;6700;51.988;7.646;2023-06-22T10:41:31;25.50;99.90
13264;DHT22;6700;51.988;7.646;2023-06-22T10:51:21;25.70;99.90
13264;DHT22;6700;51.988;7.646;2023-06-22T10:53:48;25.90;99.90
13264;DHT22;6700;51.988;7.646;2023-06-22T10:56:15;25.80;99.90
13264;DHT22;6700;51.988;7.646;2023-06-22T10:58:44;25.60;99.90
13264;DHT22;6700;51.988;7.646;2023-06-22T11:01:11;25.60;99.90
13264;DHT22;6700;51.988;7.646;2023-06-22T11:03:58;25.40;99.90
13264;DHT22;6700;51.988;7.646;2023-06-22T11:11:37;25.00;99.90
13264;DHT22;6700;51.988;7.646;2023-06-22T11:14:04;25.30;99.90
13264;DHT22;6700;51.988;7.646;2023-06-22T11:23:52;25.40;99.90
13264;DHT22;6700;51.988;7.646;2023-06-22T11:26:19;25.40;99.90
13264;DHT22;6700;51.988;7.646;2023-06-22T11:28:47;25.40;99.90
13264;DHT22;6700;51.988;7.646;2023-06-22T11:31:14;25.60;99.90
13264;DHT22;6700;51.988;7.646;2023-06-22T11:33:52;25.70;99.90
13264;DHT22;6700;51.988;7.646;2023-06-22T11:36:19;25.80;99.90
13264;DHT22;6700;51.988;7.646;2023-06-22T11:41:15;26.10;99.90
13264;DHT22;6700;51.988;7.646;2023-06-22T11:43:42;26.10;99.90
13264;DHT22;6700;51.988;7.646;2023-06-22T11:46:08;26.10;99.90
13264;DHT22;6700;51.988;7.646;2023-06-22T11:48:35;25.90;99.90
13264;DHT22;6700;51.988;7.646;2023-06-22T11:51:03;25.90;99.90
13264;DHT22;6700;51.988;7.646;2023-06-22T11:53:29;25.80;99.90
13264;DHT22;6700;51.988;7.646;2023-06-22T11:55:56;25.60;99.90
13264;DHT22;6700;51.988;7.646;2023-06-22T11:58:23;25.50;99.90
13264;DHT22;6700;51.988;7.646;2023-06-22T12:00:50;25.30;99.90
13264;DHT22;6700;51.988;7.646;2023-06-22T12:03:19;25.30;99.90
13264;DHT22;6700;51.988;7.646;2023-06-22T12:05:46;25.20;99.90
13264;DHT22;6700;51.988;7.646;2023-06-22T12:08:13;25.20;99.90
13264;DHT22;6700;51.988;7.646;2023-06-22T12:10:40;25.10;99.90
13264;DHT22;6700;51.988;7.646;2023-06-22T12:13:07;25.00;99.90
13264;DHT22;6700;51.988;7.646;2023-06-22T12:15:34;25.20;99.90
13264;DHT22;6700;51.988;7.646;2023-06-22T12:18:01;25.10;99.90
13264;DHT22;6700;51.988;7.646;2023-06-22T12:20:28;25.10;99.90
13264;DHT22;6700;51.988;7.646;2023-06-22T12:22:55;25.00;99.90
13264;DHT22;6700;51.988;7.646;2023-06-22T12:25:24;25.00;99.90
13264;DHT22;6700;51.988;7.646;2023-06-22T12:27:51;25.00;99.90
13264;DHT22;6700;51.988;7.646;2023-06-22T12:30:18;24.90;99.90
13264;DHT22;6700;51.988;7.646;2023-06-22T12:32:44;24.80;99.90
13264;DHT22;6700;51.988;7.646;2023-06-22T12:35:11;24.70;99.90
13264;DHT22;6700;51.988;7.646;2023-06-22T12:37:41;24.50;99.90
13264;DHT22;6700;51.988;7.646;2023-06-22T12:40:09;24.60;99.90
13264;DHT22;6700;51.988;7.646;2023-06-22T12:42:36;24.40;99.90
13264;DHT22;6700;51.988;7.646;2023-06-22T12:45:03;24.30;99.90
13264;DHT22;6700;51.988;7.646;2023-06-22T12:47:30;24.20;99.90
13264;DHT22;6700;51.988;7.646;2023-06-22T12:49:57;24.10;99.90
13264;DHT22;6700;51.988;7.646;2023-06-22T12:52:24;24.20;99.90
13264;DHT22;6700;51.988;7.646;2023-06-22T12:54:51;24.00;99.90
13264;DHT22;6700;51.988;7.646;2023-06-22T12:57:21;23.80;99.90
13264;DHT22;6700;51.988;7.646;2023-06-22T12:59:49;23.60;99.90
13264;DHT22;6700;51.988;7.646;2023-06-22T13:02:15;23.60;99.90
13264;DHT22;6700;51.988;7.646;2023-06-22T13:04:42;23.30;99.90
13264;DHT22;6700;51.988;7.646;2023-06-22T13:07:10;23.10;99.90
13264;DHT22;6700;51.988;7.646;2023-06-22T13:09:48;22.70;99.90
13264;DHT22;6700;51.988;7.646;2023-06-22T13:12:20;22.60;99.90
13264;DHT22;6700;51.988;7.646;2023-06-22T13:17:14;22.30;99.90
13264;DHT22;6700;51.988;7.646;2023-06-22T13:19:41;22.30;99.90
13264;DHT22;6700;51.988;7.646;2023-06-22T13:22:30;22.30;99.90
13264;DHT22;6700;51.988;7.646;2023-06-22T13:24:57;22.10;99.90
13264;DHT22;6700;51.988;7.646;2023-06-22T13:27:24;22.10;99.90
13264;DHT22;6700;51.988;7.646;2023-06-22T13:29:51;22.20;99.90
13264;DHT22;6700;51.988;7.646;2023-06-22T13:32:18;22.00;99.90
13264;DHT22;6700;51.988;7.646;2023-06-22T13:34:45;22.10;99.90
13264;DHT22;6700;51.988;7.646;2023-06-22T13:37:12;22.10;99.90
13264;DHT22;6700;51.988;7.646;2023-06-22T13:39:38;22.00;99.90
13264;DHT22;6700;51.988;7.646;2023-06-22T13:42:05;22.00;99.90
13264;DHT22;6700;51.988;7.646;2023-06-22T13:44:32;22.20;99.90
13264;DHT22;6700;51.988;7.646;2023-06-22T13:46:59;22.30;99.90
13264;DHT22;6700;51.988;7.646;2023-06-22T13:49:26;22.10;99.90
13264;DHT22;6700;51.988;7.646;2023-06-22T13:51:53;22.30;99.90
13264;DHT22;6700;51.988;7.646;2023-06-22T13:54:19;22.10;99.90
13264;DHT22;6700;51.988;7.646;2023-06-22T13:56:49;22.20;99.90
13264;DHT22;6700;51.988;7.646;2023-06-22T13:59:15;22.30;99.90
13264;DHT22;6700;51.988;7.646;2023-06-22T14:01:45;22.10;99.90
13264;DHT22;6700;51.988;7.646;2023-06-22T14:14:00;22.20;99.90
13264;DHT22;6700;51.988;7.646;2023-06-22T14:16:27;22.10;99.90
13264;DHT22;6700;51.988;7.646;2023-06-22T14:21:25;21.90;99.90
13264;DHT22;6700;51.988;7.646;2023-06-22T14:26:19;22.00;99.90
13264;DHT22;6700;51.988;7.646;2023-06-22T14:28:46;22.00;99.90
13264;DHT22;6700;51.988;7.646;2023-06-22T14:31:15;22.00;99.90
13264;DHT22;6700;51.988;7.646;2023-06-22T14:33:46;22.00;99.90
13264;DHT22;6700;51.988;7.646;2023-06-22T14:36:14;21.80;99.90
13264;DHT22;6700;51.988;7.646;2023-06-22T14:41:13;21.60;99.90
13264;DHT22;6700;51.988;7.646;2023-06-22T14:43:48;21.70;99.90
13264;DHT22;6700;51.988;7.646;2023-06-22T14:46:17;21.80;99.90
13264;DHT22;6700;51.988;7.646;2023-06-22T14:48:45;21.80;99.90
13264;DHT22;6700;51.988;7.646;2023-06-22T14:51:12;21.90;99.90
13264;DHT22;6700;51.988;7.646;2023-06-22T14:53:44;21.80;99.90
13264;DHT22;6700;51.988;7.646;2023-06-22T14:56:12;21.90;99.90
13264;DHT22;6700;51.988;7.646;2023-06-22T14:58:40;22.10;99.90
13264;DHT22;6700;51.988;7.646;2023-06-22T15:01:12;22.10;99.90
13264;DHT22;6700;51.988;7.646;2023-06-22T15:03:39;22.20;99.90
13264;DHT22;6700;51.988;7.646;2023-06-22T15:06:05;22.30;99.90
13264;DHT22;6700;51.988;7.646;2023-06-22T15:08:33;22.30;99.90
13264;DHT22;6700;51.988;7.646;2023-06-22T15:13:31;22.30;99.90
13264;DHT22;6700;51.988;7.646;2023-06-22T15:21:03;22.10;99.90
13264;DHT22;6700;51.988;7.646;2023-06-22T15:23:32;22.20;99.90
13264;DHT22;6700;51.988;7.646;2023-06-22T15:26:02;22.10;99.90
13264;DHT22;6700;51.988;7.646;2023-06-22T15:28:29;22.10;99.90
13264;DHT22;6700;51.988;7.646;2023-06-22T15:30:56;21.90;99.90
13264;DHT22;6700;51.988;7.646;2023-06-22T15:33:24;21.90;99.90
13264;DHT22;6700;51.988;7.646;2023-06-22T15:35:51;21.70;99.90
13264;DHT22;6700;51.988;7.646;2023-06-22T15:38:19;21.70;99.90
13264;DHT22;6700;51.988;7.646;2023-06-22T15:40:46;21.80;99.90
13264;DHT22;6700;51.988;7.646;2023-06-22T15:43:12;21.70;99.90
13264;DHT22;6700;51.988;7.646;2023-06-22T15:48:07;21.60;99.90
13264;DHT22;6700;51.988;7.646;2023-06-22T15:50:34;21.60;99.90
13264;DHT22;6700;51.988;7.646;2023-06-22T15:53:01;21.60;99.90
13264;DHT22;6700;51.988;7.646;2023-06-22T15:55:28;21.60;99.90
13264;DHT22;6700;51.988;7.646;2023-06-22T15:57:57;21.70;99.90
13264;DHT22;6700;51.988;7.646;2023-06-22T16:00:24;21.70;99.90
13264;DHT22;6700;51.988;7.646;2023-06-22T16:02:51;21.70;99.90
13264;DHT22;6700;51.988;7.646;2023-06-22T16:05:18;21.70;99.90
13264;DHT22;6700;51.988;7.646;2023-06-22T16:07:45;21.70;99.90
13264;DHT22;6700;51.988;7.646;2023-06-22T16:10:12;21.60;99.90
13264;DHT22;6700;51.988;7.646;2023-06-22T16:12:42;21.70;99.90
13264;DHT22;6700;51.988;7.646;2023-06-22T16:15:10;21.70;99.90
13264;DHT22;6700;51.988;7.646;2023-06-22T16:17:37;21.70;99.90
13264;DHT22;6700;51.988;7.646;2023-06-22T16:20:06;21.60;99.90
13264;DHT22;6700;51.988;7.646;2023-06-22T16:22:33;21.60;99.90
13264;DHT22;6700;51.988;7.646;2023-06-22T16:25:00;21.50;99.90
13264;DHT22;6700;51.988;7.646;2023-06-22T16:27:29;21.50;99.90
13264;DHT22;6700;51.988;7.646;2023-06-22T16:29:56;21.40;99.90
13264;DHT22;6700;51.988;7.646;2023-06-22T16:32:23;21.20;99.90
13264;DHT22;6700;51.988;7.646;2023-06-22T16:34:50;21.30;99.90
13264;DHT22;6700;51.988;7.646;2023-06-22T16:37:16;21.30;99.90
13264;DHT22;6700;51.988;7.646;2023-06-22T16:39:43;21.20;99.90
13264;DHT22;6700;51.988;7.646;2023-06-22T16:42:10;21.20;99.90
13264;DHT22;6700;51.988;7.646;2023-06-22T16:44:36;21.30;99.90
13264;DHT22;6700;51.988;7.646;2023-06-22T16:47:03;21.10;99.90
13264;DHT22;6700;51.988;7.646;2023-06-22T16:49:31;21.10;99.90
13264;DHT22;6700;51.988;7.646;2023-06-22T16:54:31;20.90;99.90
13264;DHT22;6700;51.988;7.646;2023-06-22T16:57:00;21.00;99.90
13264;DHT22;6700;51.988;7.646;2023-06-22T17:01:56;20.70;99.90
13264;DHT22;6700;51.988;7.646;2023-06-22T17:04:25;20.60;99.90
13264;DHT22;6700;51.988;7.646;2023-06-22T17:07:04;20.70;99.90
13264;DHT22;6700;51.988;7.646;2023-06-22T17:09:37;20.70;99.90
13264;DHT22;6700;51.988;7.646;2023-06-22T17:12:04;20.70;99.90
13264;DHT22;6700;51.988;7.646;2023-06-22T17:16:59;20.60;99.90
13264;DHT22;6700;51.988;7.646;2023-06-22T17:19:27;20.60;99.90
13264;DHT22;6700;51.988;7.646;2023-06-22T17:21:53;20.50;99.90
13264;DHT22;6700;51.988;7.646;2023-06-22T17:24:20;20.50;99.90
13264;DHT22;6700;51.988;7.646;2023-06-22T17:26:51;20.40;99.90
13264;DHT22;6700;51.988;7.646;2023-06-22T17:29:18;20.40;99.90
13264;DHT22;6700;51.988;7.646;2023-06-22T17:34:17;20.30;99.90
13264;DHT22;6700;51.988;7.646;2023-06-22T17:36:48;20.30;99.90
13264;DHT22;6700;51.988;7.646;2023-06-22T17:39:18;20.30;99.90
13264;DHT22;6700;51.988;7.646;2023-06-22T17:44:24;20.10;99.90
13264;DHT22;6700;51.988;7.646;2023-06-22T17:46:56;20.20;99.90
13264;DHT22;6700;51.988;7.646;2023-06-22T17:49:27;20.10;99.90
13264;DHT22;6700;51.988;7.646;2023-06-22T17:51:54;20.00;99.90
13264;DHT22;6700;51.988;7.646;2023-06-22T17:57:14;19.90;99.90
13264;DHT22;6700;51.988;7.646;2023-06-22T18:04:37;19.90;99.90